createdAt,value
2022-11-09T00:03:06.455Z,4.25
2022-11-09T00:06:22.884Z,4.23
2022-11-09T00:09:39.218Z,4.19
2022-11-09T00:12:56.867Z,4.16
2022-11-09T00:16:15.092Z,4.16
2022-11-09T00:19:31.298Z,4.15
2022-11-09T00:22:47.673Z,4.16
2022-11-09T00:26:07.207Z,4.14
2022-11-09T00:29:26.027Z,4.12
2022-11-09T00:32:42.146Z,4.11
2022-11-09T00:35:58.503Z,4.15
2022-11-09T00:39:16.423Z,4.15
2022-11-09T00:42:34.977Z,4.07
2022-11-09T00:45:52.246Z,4.08
2022-11-09T00:49:09.431Z,4.08
2022-11-09T00:52:25.626Z,4.05
2022-11-09T00:55:41.856Z,4.10
2022-11-09T00:59:02.213Z,4.09
2022-11-09T01:02:18.765Z,4.12
2022-11-09T01:05:34.876Z,3.97
2022-11-09T01:08:51.263Z,3.97
2022-11-09T01:12:07.569Z,3.84
2022-11-09T01:15:24.103Z,3.72
2022-11-09T01:18:40.728Z,3.73
2022-11-09T01:21:56.949Z,3.70
2022-11-09T01:25:16.308Z,3.72
2022-11-09T01:28:35.864Z,3.74
2022-11-09T01:31:52.494Z,3.72
2022-11-09T01:35:08.862Z,3.65
2022-11-09T01:38:25.033Z,3.62
2022-11-09T01:41:41.119Z,3.58
2022-11-09T01:45:32.675Z,3.61
2022-11-09T01:48:52.038Z,3.60
2022-11-09T01:52:08.236Z,3.48
2022-11-09T01:58:44.932Z,3.44
2022-11-09T02:02:04.822Z,3.45
2022-11-09T02:05:25.366Z,3.35
2022-11-09T02:08:43.568Z,3.26
2022-11-09T02:12:01.299Z,3.23
2022-11-09T02:15:21.179Z,3.33
2022-11-09T02:18:38.637Z,3.23
2022-11-09T02:21:55.332Z,3.19
2022-11-09T02:25:15.958Z,3.12
2022-11-09T02:28:33.996Z,3.19
2022-11-09T02:31:55.273Z,3.24
2022-11-09T02:35:12.825Z,3.17
2022-11-09T02:38:29.918Z,3.07
2022-11-09T02:41:51.940Z,3.06
2022-11-09T02:45:09.704Z,2.98
2022-11-09T02:48:27.474Z,2.96
2022-11-09T02:51:45.448Z,2.97
2022-11-09T02:55:02.495Z,2.99
2022-11-09T02:58:19.103Z,2.99
2022-11-09T03:01:35.842Z,2.86
2022-11-09T03:04:52.070Z,2.78
2022-11-09T03:08:08.756Z,2.80
2022-11-09T03:11:24.940Z,2.85
2022-11-09T03:14:41.187Z,2.81
2022-11-09T03:17:58.198Z,2.81
2022-11-09T03:21:15.195Z,2.83
2022-11-09T03:24:35.291Z,2.88
2022-11-09T03:27:52.680Z,2.87
2022-11-09T03:31:08.917Z,2.83
2022-11-09T03:34:25.529Z,2.84
2022-11-09T03:37:42.150Z,2.84
2022-11-09T03:40:59.019Z,2.77
2022-11-09T03:44:15.571Z,2.72
2022-11-09T03:47:33.101Z,2.66
2022-11-09T03:50:49.290Z,2.70
2022-11-09T03:54:05.398Z,2.71
2022-11-09T03:57:22.618Z,2.69
2022-11-09T04:00:40.621Z,2.66
2022-11-09T04:03:58.852Z,2.67
2022-11-09T04:07:15.488Z,2.66
2022-11-09T04:10:33.881Z,2.61
2022-11-09T04:13:50.072Z,2.57
2022-11-09T04:17:06.381Z,2.55
2022-11-09T04:20:22.942Z,2.57
2022-11-09T04:23:39.203Z,2.51
2022-11-09T04:26:56.663Z,2.44
2022-11-09T04:30:16.214Z,2.33
2022-11-09T04:33:29.955Z,2.33
2022-11-09T04:36:46.270Z,2.34
2022-11-09T04:40:02.552Z,2.29
2022-11-09T04:43:21.858Z,2.30
2022-11-09T04:46:35.914Z,2.31
2022-11-09T04:49:51.876Z,2.30
2022-11-09T04:56:25.181Z,2.20
2022-11-09T04:59:41.959Z,2.23
2022-11-09T05:02:58.041Z,2.12
2022-11-09T05:06:25.217Z,2.17
2022-11-09T05:12:57.595Z,2.20
2022-11-09T05:16:14.566Z,2.17
2022-11-09T05:19:30.901Z,2.13
2022-11-09T05:23:04.550Z,2.07
2022-11-09T05:26:21.086Z,2.12
2022-11-09T05:29:37.198Z,2.15
2022-11-09T05:32:53.366Z,2.20
2022-11-09T05:36:11.902Z,2.17
2022-11-09T05:39:28.140Z,2.19
2022-11-09T05:42:46.029Z,2.12
2022-11-09T05:46:06.764Z,2.11
2022-11-09T05:49:23.005Z,2.10
2022-11-09T05:52:39.237Z,2.09
2022-11-09T05:55:55.539Z,2.05
2022-11-09T05:59:12.145Z,2.09
2022-11-09T06:02:28.983Z,2.22
2022-11-09T06:05:48.332Z,2.14
2022-11-09T06:09:05.861Z,2.22
2022-11-09T06:12:22.472Z,2.27
2022-11-09T06:15:39.194Z,2.27
2022-11-09T06:18:56.195Z,2.34
2022-11-09T06:22:13.040Z,2.40
2022-11-09T06:25:30.258Z,2.42
2022-11-09T06:28:47.892Z,2.67
2022-11-09T06:32:04.300Z,2.99
2022-11-09T06:35:22.237Z,3.67
2022-11-09T06:38:38.793Z,4.17
2022-11-09T06:41:54.893Z,4.43
2022-11-09T06:45:13.442Z,4.76
2022-11-09T06:48:30.589Z,4.96
2022-11-09T06:51:51.385Z,5.00
2022-11-09T06:55:15.554Z,5.07
2022-11-09T06:58:29.975Z,5.11
2022-11-09T07:01:46.993Z,5.23
2022-11-09T07:05:04.592Z,5.29
2022-11-09T07:08:24.201Z,5.44
2022-11-09T07:11:38.472Z,5.57
2022-11-09T07:14:54.504Z,5.55
2022-11-09T07:18:17.677Z,5.62
2022-11-09T07:21:33.837Z,5.76
2022-11-09T07:24:50.128Z,5.78
2022-11-09T07:28:14.260Z,5.74
2022-11-09T07:31:32.917Z,5.74
2022-11-09T07:34:52.627Z,5.86
2022-11-09T07:38:11.408Z,5.88
2022-11-09T07:41:34.492Z,5.87
2022-11-09T07:44:49.268Z,5.85
2022-11-09T07:48:08.989Z,5.91
2022-11-09T07:51:27.021Z,6.01
2022-11-09T07:58:04.696Z,6.18
2022-11-09T08:01:25.390Z,6.34
2022-11-09T08:04:42.450Z,6.60
2022-11-09T08:08:05.019Z,7.10
2022-11-09T08:11:24.123Z,7.54
2022-11-09T08:14:40.806Z,7.94
2022-11-09T08:17:57.321Z,8.28
2022-11-09T08:21:14.394Z,8.36
2022-11-09T08:24:31.771Z,8.50
2022-11-09T08:27:48.466Z,8.68
2022-11-09T08:31:10.326Z,8.84
2022-11-09T08:34:27.043Z,9.03
2022-11-09T08:41:19.461Z,9.11
2022-11-09T08:44:35.823Z,9.15
2022-11-09T08:47:52.592Z,9.09
2022-11-09T08:51:10.460Z,9.15
2022-11-09T08:54:26.708Z,9.46
2022-11-09T08:57:43.395Z,9.53
2022-11-09T09:01:00.932Z,9.58
2022-11-09T09:04:17.179Z,9.67
2022-11-09T09:07:33.814Z,9.66
2022-11-09T09:10:50.486Z,9.71
2022-11-09T09:14:07.028Z,9.83
2022-11-09T09:17:23.407Z,9.92
2022-11-09T09:20:39.735Z,10.06
2022-11-09T09:23:57.784Z,10.18
2022-11-09T09:27:17.746Z,10.35
2022-11-09T09:30:34.133Z,10.49
2022-11-09T09:33:53.156Z,10.65
2022-11-09T09:37:13.977Z,10.79
2022-11-09T09:40:39.321Z,10.99
2022-11-09T09:44:00.238Z,11.09
2022-11-09T09:47:23.110Z,11.11
2022-11-09T09:50:46.845Z,11.16
2022-11-09T09:54:09.988Z,11.21
2022-11-09T09:57:31.213Z,11.24
2022-11-09T10:00:50.729Z,11.30
2022-11-09T10:04:11.166Z,11.34
2022-11-09T10:07:32.979Z,11.33
2022-11-09T10:15:02.109Z,11.33
2022-11-09T10:18:43.098Z,11.32
2022-11-09T10:22:08.005Z,11.26
2022-11-09T10:29:21.841Z,11.30
2022-11-09T10:32:39.795Z,11.30
2022-11-09T10:36:05.256Z,11.25
2022-11-09T10:39:22.681Z,11.26
2022-11-09T10:43:02.567Z,11.27
2022-11-09T10:46:36.619Z,11.26
2022-11-09T10:50:27.711Z,11.30
2022-11-09T10:57:33.107Z,11.38
2022-11-09T11:01:25.876Z,11.43
2022-11-09T11:05:07.498Z,11.47
2022-11-09T11:08:48.652Z,11.53
2022-11-09T11:12:28.430Z,11.59
2022-11-09T11:16:04.186Z,11.63
2022-11-09T11:19:46.892Z,11.64
2022-11-09T11:23:27.162Z,11.68
2022-11-09T11:27:10.526Z,11.79
2022-11-09T11:30:44.729Z,11.87
2022-11-09T11:34:45.725Z,11.96
2022-11-09T11:38:07.409Z,12.03
2022-11-09T11:42:25.046Z,12.07
2022-11-09T11:46:07.213Z,12.14
2022-11-09T11:50:05.583Z,12.19
2022-11-09T11:53:59.733Z,12.24
2022-11-09T11:57:40.042Z,12.28
2022-11-09T12:01:21.731Z,12.28
2022-11-09T12:05:14.043Z,12.30
2022-11-09T12:09:04.797Z,12.33
2022-11-09T12:12:47.976Z,12.35
2022-11-09T12:16:28.376Z,12.36
2022-11-09T12:20:37.267Z,12.39
2022-11-09T12:24:29.485Z,12.41
2022-11-09T12:28:33.399Z,12.43
2022-11-09T12:32:18.544Z,12.46
2022-11-09T12:35:59.927Z,12.49
2022-11-09T12:39:41.051Z,12.51
2022-11-09T12:43:25.380Z,12.53
2022-11-09T12:47:05.218Z,12.55
2022-11-09T12:50:41.224Z,12.57
2022-11-09T12:57:35.537Z,12.57
2022-11-09T13:01:12.483Z,12.56
2022-11-09T13:04:47.097Z,12.56
2022-11-09T13:12:47.106Z,12.55
2022-11-09T13:16:39.332Z,12.54
2022-11-09T13:20:55.241Z,12.51
2022-11-09T13:25:01.869Z,12.48
2022-11-09T13:29:15.178Z,12.48
2022-11-09T13:33:05.901Z,12.46
2022-11-09T13:36:40.051Z,12.44
2022-11-09T13:40:49.092Z,12.41
2022-11-09T13:44:35.773Z,12.39
2022-11-09T13:48:09.473Z,12.39
2022-11-09T13:51:53.883Z,12.37
2022-11-09T13:55:45.853Z,12.43
2022-11-09T13:59:28.613Z,12.48
2022-11-09T14:03:09.490Z,12.46
2022-11-09T14:06:43.961Z,12.46
2022-11-09T14:10:25.196Z,12.45
2022-11-09T14:14:36.526Z,12.44
2022-11-09T14:18:24.696Z,12.43
2022-11-09T14:22:01.510Z,12.43
2022-11-09T14:28:52.391Z,12.36
2022-11-09T14:32:36.892Z,12.32
2022-11-09T14:36:13.286Z,12.29
2022-11-09T14:39:48.784Z,12.29
2022-11-09T14:43:32.744Z,12.13
2022-11-09T14:47:08.041Z,11.98
2022-11-09T14:50:45.504Z,11.91
2022-11-09T14:54:30.011Z,11.90
2022-11-09T14:58:23.935Z,11.89
2022-11-09T15:02:13.853Z,11.89
2022-11-09T15:05:50.584Z,11.80
2022-11-09T15:09:32.746Z,11.57
2022-11-09T15:13:10.621Z,11.24
2022-11-09T15:16:45.825Z,11.10
2022-11-09T15:20:39.505Z,10.97
2022-11-09T15:24:26.268Z,10.78
2022-11-09T15:28:31.739Z,10.66
2022-11-09T15:32:19.472Z,10.49
2022-11-09T15:36:01.212Z,10.38
2022-11-09T15:39:35.664Z,10.24
2022-11-09T15:43:12.327Z,10.09
2022-11-09T15:46:51.270Z,9.90
2022-11-09T15:50:30.191Z,9.78
2022-11-09T15:54:04.481Z,9.69
2022-11-09T15:57:40.665Z,9.60
2022-11-09T16:01:15.645Z,9.53
2022-11-09T16:13:26.855Z,9.34
2022-11-09T16:17:01.924Z,9.27
2022-11-09T16:20:37.450Z,9.31
2022-11-09T16:24:11.666Z,9.22
2022-11-09T16:27:51.611Z,9.19
2022-11-09T16:31:50.263Z,9.06
2022-11-09T16:38:46.754Z,8.86
2022-11-09T16:42:28.319Z,8.73
2022-11-09T16:46:03.756Z,8.66
2022-11-09T16:49:41.153Z,8.62
2022-11-09T16:53:17.085Z,8.56
2022-11-09T16:56:58.774Z,8.46
2022-11-09T17:04:11.990Z,8.28
2022-11-09T17:07:47.285Z,8.24
2022-11-09T17:11:23.512Z,8.21
2022-11-09T17:14:58.304Z,8.18
2022-11-09T17:18:32.504Z,8.14
2022-11-09T17:22:06.477Z,8.06
2022-11-09T17:25:41.512Z,7.91
2022-11-09T17:29:16.119Z,7.90
2022-11-09T17:32:52.012Z,7.80
2022-11-09T17:36:49.313Z,7.70
2022-11-09T17:40:04.188Z,7.60
2022-11-09T17:43:42.842Z,7.56
2022-11-09T17:47:19.156Z,7.58
2022-11-09T17:50:53.541Z,7.54
2022-11-09T17:54:32.558Z,7.51
2022-11-09T17:58:05.124Z,7.50
2022-11-09T18:01:41.424Z,7.53
2022-11-09T18:05:18.707Z,7.38
2022-11-09T18:09:26.775Z,7.32
2022-11-09T18:12:32.503Z,7.36
2022-11-09T18:16:07.624Z,7.21
2022-11-09T18:19:45.584Z,7.15
2022-11-09T18:23:20.279Z,6.95
2022-11-09T18:26:55.117Z,6.87
2022-11-09T18:30:34.330Z,6.79
2022-11-09T18:34:08.594Z,6.78
2022-11-09T18:37:47.247Z,6.86
2022-11-09T18:41:24.687Z,6.96
2022-11-09T18:45:00.668Z,6.93
2022-11-09T18:48:36.624Z,6.86
2022-11-09T18:52:11.560Z,6.76
2022-11-09T18:55:46.103Z,6.73
2022-11-09T18:59:21.810Z,6.69
2022-11-09T19:02:56.516Z,6.71
2022-11-09T19:06:31.836Z,6.66
2022-11-09T19:10:07.383Z,6.57
2022-11-09T19:13:41.747Z,6.51
2022-11-09T19:17:18.807Z,6.51
2022-11-09T19:20:54.446Z,6.46
2022-11-09T19:24:32.413Z,6.50
2022-11-09T19:28:08.637Z,6.58
2022-11-09T19:31:58.415Z,6.67
2022-11-09T19:35:35.968Z,6.61
2022-11-09T19:39:14.098Z,6.67
2022-11-09T19:42:50.787Z,6.62
2022-11-09T19:46:26.511Z,6.62
2022-11-09T19:50:01.171Z,6.57
2022-11-09T19:53:42.039Z,6.51
2022-11-09T19:57:13.076Z,6.49
2022-11-09T20:00:47.637Z,6.53
2022-11-09T20:04:22.985Z,6.52
2022-11-09T20:07:58.664Z,6.47
2022-11-09T20:11:49.231Z,6.39
2022-11-09T20:15:26.755Z,6.39
2022-11-09T20:19:02.916Z,6.31
2022-11-09T20:22:39.856Z,6.23
2022-11-09T20:26:17.645Z,6.16
2022-11-09T20:29:54.637Z,6.11
2022-11-09T20:33:29.536Z,6.07
2022-11-09T20:37:03.739Z,6.07
2022-11-09T20:40:37.692Z,6.15
2022-11-09T20:44:12.040Z,6.20
2022-11-09T20:48:07.203Z,6.09
2022-11-09T20:51:24.396Z,6.04
2022-11-09T20:54:58.709Z,5.94
2022-11-09T20:58:33.903Z,5.96
2022-11-09T21:02:09.426Z,5.90
2022-11-09T21:05:50.515Z,5.86
2022-11-09T21:09:21.692Z,5.80
2022-11-09T21:12:55.782Z,5.77
2022-11-09T21:16:31.814Z,5.70
2022-11-09T21:20:06.610Z,5.69
2022-11-09T21:23:55.564Z,5.57
2022-11-09T21:27:48.211Z,5.55
2022-11-09T21:31:22.669Z,5.53
2022-11-09T21:34:58.670Z,5.48
2022-11-09T21:38:33.246Z,5.44
2022-11-09T21:42:08.358Z,5.47
2022-11-09T21:45:42.695Z,5.39
2022-11-09T21:49:18.615Z,5.32
2022-11-09T21:52:52.876Z,5.25
2022-11-09T21:56:27.398Z,5.13
2022-11-09T22:00:01.611Z,5.11
2022-11-09T22:03:36.144Z,5.13
2022-11-09T22:07:10.613Z,5.09
2022-11-09T22:10:44.745Z,5.05
2022-11-09T22:14:37.026Z,4.99
2022-11-09T22:18:13.430Z,5.04
2022-11-09T22:21:47.706Z,5.06
2022-11-09T22:28:39.603Z,5.24
2022-11-09T22:32:15.633Z,5.44
2022-11-09T22:35:49.530Z,5.61
2022-11-09T22:39:23.483Z,5.70
2022-11-09T22:43:01.697Z,5.81
2022-11-09T22:46:35.769Z,5.89
2022-11-09T22:50:10.199Z,5.99
2022-11-09T22:53:44.263Z,6.10
2022-11-09T22:57:18.615Z,6.23
2022-11-09T23:00:52.829Z,6.30
2022-11-09T23:04:26.837Z,6.51
2022-11-09T23:08:02.324Z,6.63
2022-11-09T23:15:12.472Z,6.78
2022-11-09T23:18:59.897Z,6.86
2022-11-09T23:22:37.510Z,6.91
2022-11-09T23:29:27.514Z,6.88
2022-11-09T23:33:01.654Z,6.87
2022-11-09T23:36:36.877Z,6.91
2022-11-09T23:45:20.302Z,7.00
2022-11-09T23:48:54.576Z,7.04
2022-11-09T23:52:28.569Z,7.08
2022-11-09T23:56:06.805Z,7.10
2022-11-09T23:59:41.139Z,7.09
